Caribbean Princess — ZCDG8 — position and weather

sailwx.info

Track history (hours):
 
Tides and Currents Weather Stations Pressure Air Temp Water Temp Dewpoint Dewpoint Depression Visibility Wind Speed Wind Dir Waves Ship Positions

Caribbean Princess

Operator: Princess Cruises

Last reported at 2019-Oct-16 14:21 UTC. Time now 2019-Oct-18 09:15 UTC.
Position N 42°21' W 071°01'.

Type: Passenger vessel. MMSI: 310423000.

Date/timePositionNaut miles runAvg speedWind from/ knotsBaromVisibWave heightAir tempDewpointWater temp
2019-Oct-16 14:21N 42°21' W 071°01'0 0.9
2019-Oct-16 13:59N 42°20' W 071°01'5 8.5
2019-Oct-16 13:21N 42°23' W 070°54'412.2
2019-Oct-16 13:00N 42°24' W 070°48'8714.4
2019-Oct-16 07:00N 41°24' W 069°24'4812.1 270 / 61019.410.8 12.5 5.714.0
2019-Oct-16 03:00N 40°36' W 069°30'9912.1 050 / 61020.610.8 13.0 7.413.0
2019-Oct-15 18:48N 41°29' W 071°20'0 0.0
2019-Oct-15 15:24N 41°29' W 071°20'0 0.1
2019-Oct-15 15:00N 41°29' W 071°20'0 0.0
2019-Oct-15 14:18N 41°29' W 071°20'0 0.0
2019-Oct-15 12:48N 41°29' W 071°20'0 0.0
2019-Oct-15 12:06N 41°29' W 071°20'0 0.1
2019-Oct-15 12:00N 41°29' W 071°20'0 0.1
2019-Oct-15 11:24N 41°29' W 071°20'0 0.0
2019-Oct-15 11:00N 41°29' W 071°20'1 1.7
2019-Oct-15 10:28N 41°29' W 071°21'511.7
2019-Oct-15 10:00N 41°23' W 071°21'612.0
2019-Oct-15 09:30N 41°17' W 071°22'7711.8
2019-Oct-15 03:00N 40°30' W 072°42'4022.6 240 / 151016.510.8 17.515.913.0
2019-Oct-15 01:13N 40°25' W 073°34'417.4
2019-Oct-15 01:00N 40°26' W 073°39'2311.9
2019-Oct-14 23:04N 40°41' W 074°02'1 7.8
2019-Oct-14 22:57N 40°41' W 074°01'0 0.3
2019-Oct-14 22:26N 40°41' W 074°01'0 0.0
2019-Oct-14 14:33N 40°41' W 074°01'0 0.0
2019-Oct-14 11:03N 40°41' W 074°01'4 1.9
2019-Oct-14 08:59N 40°37' W 074°03'1711.3
2019-Oct-14 07:27N 40°27' W 073°44'612.8
2019-Oct-14 07:00N 40°28' W 073°37'5112.7
2019-Oct-14 03:00N 40°30' W 072°30'3311.1 190 / 171017.210.8 15.512.114.0
2019-Oct-14 00:01N 40°31' W 071°47'9511.8
2019-Oct-13 16:00N 40°30' W 069°42'122 9.7 300 / 131017.710.8 16.011.714.0
2019-Oct-13 03:23N 42°22' W 070°46'512.0
2019-Oct-13 03:01N 42°24' W 070°52'8 9.1
2019-Oct-13 02:08N 42°21' W 071°01'0 2.2
2019-Oct-13 01:57N 42°21' W 071°02'0 0.6
2019-Oct-13 01:26N 42°21' W 071°02'0 0.0
2019-Oct-13 00:56N 42°21' W 071°02'0 0.0
2019-Oct-13 00:26N 42°21' W 071°02'0 0.0
2019-Oct-12 23:56N 42°21' W 071°02'0 0.0
2019-Oct-12 23:26N 42°21' W 071°02'0 0.0
2019-Oct-12 22:56N 42°21' W 071°02'0 0.0
2019-Oct-12 22:26N 42°21' W 071°02'0 0.0
2019-Oct-12 21:50N 42°21' W 071°02'0 0.0
2019-Oct-12 21:26N 42°21' W 071°02'0 0.0
2019-Oct-12 20:56N 42°21' W 071°02'0 0.0
2019-Oct-12 20:20N 42°21' W 071°02'0 0.0
2019-Oct-12 19:56N 42°21' W 071°02'0 0.0
2019-Oct-12 19:26N 42°21' W 071°02'0 0.0
2019-Oct-12 18:56N 42°21' W 071°02'0 0.0
2019-Oct-12 18:26N 42°21' W 071°02'0 0.0
2019-Oct-12 17:56N 42°21' W 071°02'0 0.0
2019-Oct-12 17:26N 42°21' W 071°02'1 1.6
2019-Oct-12 16:59N 42°21' W 071°01'6 9.0
2019-Oct-12 16:21N 42°23' W 070°54'412.4
2019-Oct-12 16:00N 42°24' W 070°48'611.2
2019-Oct-12 15:30N 42°27' W 070°42'711.1
2019-Oct-12 14:52N 42°32' W 070°35'12210.3
2019-Oct-12 03:00N 43°42' W 068°18'65 3.3 030 / 501018.7 5.4 13.0 9.412.0
2019-Oct-11 07:00N 43°42' W 066°48'6412.8 060 / 301023.910.8 13.0 9.413.0
2019-Oct-11 02:00N 43°12' W 065°30'11719.4 070 / 501023.9 5.4 13.0 9.413.0
2019-Oct-10 19:59N 44°31' W 063°31'612.0
2019-Oct-10 19:30N 44°37' W 063°33'2 3.0
2019-Oct-10 18:55N 44°38' W 063°34'0 0.0
2019-Oct-10 18:25N 44°38' W 063°34'0 0.0
2019-Oct-10 18:00N 44°38' W 063°34'0 0.0
2019-Oct-10 17:30N 44°38' W 063°34'0 0.0
2019-Oct-10 17:00N 44°38' W 063°34'0 0.0
2019-Oct-10 16:25N 44°38' W 063°34'0 0.0
2019-Oct-10 15:55N 44°38' W 063°34'0 0.0
2019-Oct-10 15:25N 44°38' W 063°34'0 0.0
2019-Oct-10 14:55N 44°38' W 063°34'0 0.0
2019-Oct-10 14:25N 44°38' W 063°34'0 0.0
2019-Oct-10 13:55N 44°38' W 063°34'0 0.0
2019-Oct-10 13:25N 44°38' W 063°34'0 0.0
2019-Oct-10 12:55N 44°38' W 063°34'0 0.0
2019-Oct-10 12:25N 44°38' W 063°34'0 0.0
2019-Oct-10 11:55N 44°38' W 063°34'0 0.0
2019-Oct-10 11:25N 44°38' W 063°34'0 0.0
2019-Oct-10 10:55N 44°38' W 063°34'0 0.0
2019-Oct-10 10:25N 44°38' W 063°34'0 0.0
2019-Oct-10 09:55N 44°38' W 063°34'0 1.2
2019-Oct-10 09:30N 44°38' W 063°33'4 8.1
2019-Oct-10 09:01N 44°34' W 063°32'510.9
2019-Oct-10 08:30N 44°29' W 063°28'611.3
2019-Oct-10 08:00N 44°28' W 063°20'612.0
2019-Oct-10 07:31N 44°28' W 063°12'815.3
2019-Oct-10 06:59N 44°28' W 063°01'9418.8
2019-Oct-10 02:00N 44°54' W 060°54'110 2.3 090 / 101030.210.8 11.0 7.212.0
2019-Oct-08 03:00N 46°42' W 061°24'   200 / 431016.3 5.4 16.012.712.0
Track history (hours):
 
Tides and Currents Weather Stations Pressure Air Temp Water Temp Dewpoint Dewpoint Depression Visibility Wind Speed Wind Dir Waves Ship Positions

Caribbean Princess

Operator: Princess Cruises

Last reported at 2019-Oct-16 14:21 UTC. Time now 2019-Oct-18 09:15 UTC.
Position N 42°21' W 071°01'.

Type: Passenger vessel. MMSI: 310423000.

Date/timePositionNaut miles runAvg speedWind from/ knotsBaromVisibWave heightAir tempDewpointWater temp
2019-Oct-16 14:21N 42°21' W 071°01'0 0.9
2019-Oct-16 13:59N 42°20' W 071°01'5 8.5
2019-Oct-16 13:21N 42°23' W 070°54'412.2
2019-Oct-16 13:00N 42°24' W 070°48'8714.4
2019-Oct-16 07:00N 41°24' W 069°24'4812.1 270 / 61019.410.8 12.5 5.714.0
2019-Oct-16 03:00N 40°36' W 069°30'9912.1 050 / 61020.610.8 13.0 7.413.0
2019-Oct-15 18:48N 41°29' W 071°20'0 0.0
2019-Oct-15 15:24N 41°29' W 071°20'0 0.1
2019-Oct-15 15:00N 41°29' W 071°20'0 0.0
2019-Oct-15 14:18N 41°29' W 071°20'0 0.0
2019-Oct-15 12:48N 41°29' W 071°20'0 0.0
2019-Oct-15 12:06N 41°29' W 071°20'0 0.1
2019-Oct-15 12:00N 41°29' W 071°20'0 0.1
2019-Oct-15 11:24N 41°29' W 071°20'0 0.0
2019-Oct-15 11:00N 41°29' W 071°20'1 1.7
2019-Oct-15 10:28N 41°29' W 071°21'511.7
2019-Oct-15 10:00N 41°23' W 071°21'612.0
2019-Oct-15 09:30N 41°17' W 071°22'7711.8
2019-Oct-15 03:00N 40°30' W 072°42'4022.6 240 / 151016.510.8 17.515.913.0
2019-Oct-15 01:13N 40°25' W 073°34'417.4
2019-Oct-15 01:00N 40°26' W 073°39'2311.9
2019-Oct-14 23:04N 40°41' W 074°02'1 7.8
2019-Oct-14 22:57N 40°41' W 074°01'0 0.3
2019-Oct-14 22:26N 40°41' W 074°01'0 0.0
2019-Oct-14 14:33N 40°41' W 074°01'0 0.0
2019-Oct-14 11:03N 40°41' W 074°01'4 1.9
2019-Oct-14 08:59N 40°37' W 074°03'1711.3
2019-Oct-14 07:27N 40°27' W 073°44'612.8
2019-Oct-14 07:00N 40°28' W 073°37'5112.7
2019-Oct-14 03:00N 40°30' W 072°30'3311.1 190 / 171017.210.8 15.512.114.0
2019-Oct-14 00:01N 40°31' W 071°47'9511.8
2019-Oct-13 16:00N 40°30' W 069°42'122 9.7 300 / 131017.710.8 16.011.714.0
2019-Oct-13 03:23N 42°22' W 070°46'512.0
2019-Oct-13 03:01N 42°24' W 070°52'8 9.1
2019-Oct-13 02:08N 42°21' W 071°01'0 2.2
2019-Oct-13 01:57N 42°21' W 071°02'0 0.6
2019-Oct-13 01:26N 42°21' W 071°02'0 0.0
2019-Oct-13 00:56N 42°21' W 071°02'0 0.0
2019-Oct-13 00:26N 42°21' W 071°02'0 0.0
2019-Oct-12 23:56N 42°21' W 071°02'0 0.0
2019-Oct-12 23:26N 42°21' W 071°02'0 0.0
2019-Oct-12 22:56N 42°21' W 071°02'0 0.0
2019-Oct-12 22:26N 42°21' W 071°02'0 0.0
2019-Oct-12 21:50N 42°21' W 071°02'0 0.0
2019-Oct-12 21:26N 42°21' W 071°02'0 0.0
2019-Oct-12 20:56N 42°21' W 071°02'0 0.0
2019-Oct-12 20:20N 42°21' W 071°02'0 0.0
2019-Oct-12 19:56N 42°21' W 071°02'0 0.0
2019-Oct-12 19:26N 42°21' W 071°02'0 0.0
2019-Oct-12 18:56N 42°21' W 071°02'0 0.0
2019-Oct-12 18:26N 42°21' W 071°02'0 0.0
2019-Oct-12 17:56N 42°21' W 071°02'0 0.0
2019-Oct-12 17:26N 42°21' W 071°02'1 1.6
2019-Oct-12 16:59N 42°21' W 071°01'6 9.0
2019-Oct-12 16:21N 42°23' W 070°54'412.4
2019-Oct-12 16:00N 42°24' W 070°48'611.2
2019-Oct-12 15:30N 42°27' W 070°42'711.1
2019-Oct-12 14:52N 42°32' W 070°35'12210.3
2019-Oct-12 03:00N 43°42' W 068°18'65 3.3 030 / 501018.7 5.4 13.0 9.412.0
2019-Oct-11 07:00N 43°42' W 066°48'6412.8 060 / 301023.910.8 13.0 9.413.0
2019-Oct-11 02:00N 43°12' W 065°30'11719.4 070 / 501023.9 5.4 13.0 9.413.0
2019-Oct-10 19:59N 44°31' W 063°31'612.0
2019-Oct-10 19:30N 44°37' W 063°33'2 3.0
2019-Oct-10 18:55N 44°38' W 063°34'0 0.0
2019-Oct-10 18:25N 44°38' W 063°34'0 0.0
2019-Oct-10 18:00N 44°38' W 063°34'0 0.0
2019-Oct-10 17:30N 44°38' W 063°34'0 0.0
2019-Oct-10 17:00N 44°38' W 063°34'0 0.0
2019-Oct-10 16:25N 44°38' W 063°34'0 0.0
2019-Oct-10 15:55N 44°38' W 063°34'0 0.0
2019-Oct-10 15:25N 44°38' W 063°34'0 0.0
2019-Oct-10 14:55N 44°38' W 063°34'0 0.0
2019-Oct-10 14:25N 44°38' W 063°34'0 0.0
2019-Oct-10 13:55N 44°38' W 063°34'0 0.0
2019-Oct-10 13:25N 44°38' W 063°34'0 0.0
2019-Oct-10 12:55N 44°38' W 063°34'0 0.0
2019-Oct-10 12:25N 44°38' W 063°34'0 0.0
2019-Oct-10 11:55N 44°38' W 063°34'0 0.0
2019-Oct-10 11:25N 44°38' W 063°34'0 0.0
2019-Oct-10 10:55N 44°38' W 063°34'0 0.0
2019-Oct-10 10:25N 44°38' W 063°34'0 0.0
2019-Oct-10 09:55N 44°38' W 063°34'0 1.2
2019-Oct-10 09:30N 44°38' W 063°33'4 8.1
2019-Oct-10 09:01N 44°34' W 063°32'510.9
2019-Oct-10 08:30N 44°29' W 063°28'611.3
2019-Oct-10 08:00N 44°28' W 063°20'612.0
2019-Oct-10 07:31N 44°28' W 063°12'815.3
2019-Oct-10 06:59N 44°28' W 063°01'9418.8
2019-Oct-10 02:00N 44°54' W 060°54'110 2.3 090 / 101030.210.8 11.0 7.212.0
2019-Oct-08 03:00N 46°42' W 061°24'   200 / 431016.3 5.4 16.012.712.0

Dump ship's entire track history